createdAt,value
2018-08-11T00:00:24.154Z,90.30
2018-08-11T00:02:53.941Z,90.20
2018-08-11T00:05:23.653Z,90.90
2018-08-11T00:07:53.262Z,90.80
2018-08-11T00:10:23.303Z,90.70
2018-08-11T00:12:52.684Z,91.20
2018-08-11T00:15:22.348Z,90.90
2018-08-11T00:17:51.681Z,91.20
2018-08-11T00:20:29.563Z,91.10
2018-08-11T00:22:59.129Z,91.40
2018-08-11T00:25:29.357Z,91.70
2018-08-11T00:27:58.591Z,91.20
2018-08-11T00:30:28.081Z,92.00
2018-08-11T00:32:57.733Z,91.70
2018-08-11T00:35:27.301Z,91.70
2018-08-11T00:37:57.038Z,92.40
2018-08-11T00:40:26.710Z,92.30
2018-08-11T00:42:57.240Z,92.20
2018-08-11T00:45:26.733Z,92.80
2018-08-11T00:47:57.165Z,92.10
2018-08-11T00:50:30.737Z,92.50
2018-08-11T00:52:59.919Z,92.20
2018-08-11T00:55:29.366Z,92.20
2018-08-11T00:57:58.909Z,92.20
2018-08-11T01:00:28.718Z,92.70
2018-08-11T01:02:58.135Z,93.00
2018-08-11T01:05:27.963Z,92.70
2018-08-11T01:07:57.383Z,92.40
2018-08-11T01:10:26.801Z,91.70
2018-08-11T01:12:56.178Z,91.90
2018-08-11T01:15:25.385Z,92.20
2018-08-11T01:17:55.289Z,92.60
2018-08-11T01:20:24.513Z,92.50
2018-08-11T01:22:54.115Z,92.90
2018-08-11T01:25:23.612Z,93.20
2018-08-11T01:27:53.205Z,93.20
2018-08-11T01:30:23.449Z,92.90
2018-08-11T01:32:52.874Z,93.10
2018-08-11T01:35:22.450Z,93.20
2018-08-11T01:37:51.945Z,93.20
2018-08-11T01:40:21.381Z,93.30
2018-08-11T01:42:51.709Z,93.10
2018-08-11T01:45:20.992Z,93.30
2018-08-11T01:47:50.568Z,93.20
2018-08-11T01:50:20.205Z,93.00
2018-08-11T01:52:49.640Z,93.10
2018-08-11T01:55:20.034Z,93.50
2018-08-11T01:57:50.482Z,93.30
2018-08-11T02:00:21.289Z,93.00
2018-08-11T02:02:50.615Z,93.80
2018-08-11T02:05:20.324Z,93.60
2018-08-11T02:07:49.782Z,93.80
2018-08-11T02:10:20.829Z,93.70
2018-08-11T02:12:50.189Z,93.70
2018-08-11T02:15:19.781Z,93.50
2018-08-11T02:17:49.374Z,94.20
2018-08-11T02:20:19.897Z,94.10
2018-08-11T02:22:50.259Z,93.90
2018-08-11T02:25:19.733Z,94.20
2018-08-11T02:27:49.119Z,94.00
2018-08-11T02:30:19.394Z,95.10
2018-08-11T02:32:48.849Z,94.00
2018-08-11T02:35:18.419Z,94.20
2018-08-11T02:37:47.830Z,95.20
2018-08-11T02:40:17.778Z,95.00
2018-08-11T02:42:47.459Z,95.20
2018-08-11T02:45:17.934Z,95.00
2018-08-11T02:47:47.740Z,95.20
2018-08-11T02:50:16.960Z,95.00
2018-08-11T02:52:46.330Z,95.10
2018-08-11T02:55:15.504Z,95.20
2018-08-11T02:57:44.781Z,95.90
2018-08-11T03:00:14.213Z,95.60
2018-08-11T03:02:44.582Z,95.20
2018-08-11T03:05:13.999Z,95.70
2018-08-11T03:07:43.323Z,95.50
2018-08-11T03:10:12.968Z,95.60
2018-08-11T03:12:42.741Z,96.40
2018-08-11T03:15:13.074Z,96.70
2018-08-11T03:17:42.901Z,96.40
2018-08-11T03:20:13.809Z,96.50
2018-08-11T03:22:44.078Z,96.50
2018-08-11T03:25:13.474Z,96.40
2018-08-11T03:27:42.786Z,96.50
2018-08-11T03:30:12.432Z,96.90
2018-08-11T03:32:42.034Z,96.70
2018-08-11T03:35:11.426Z,96.90
2018-08-11T03:37:40.744Z,97.20
2018-08-11T03:40:11.120Z,97.10
2018-08-11T03:42:41.199Z,97.30
2018-08-11T03:45:10.903Z,97.20
2018-08-11T03:47:40.273Z,97.20
2018-08-11T03:50:09.740Z,97.60
2018-08-11T03:52:38.949Z,97.20
2018-08-11T03:55:08.242Z,97.60
2018-08-11T03:57:37.836Z,97.40
2018-08-11T04:00:09.783Z,98.70
2018-08-11T04:02:39.038Z,98.20
2018-08-11T04:05:08.398Z,98.00
2018-08-11T04:07:38.091Z,98.80
2018-08-11T04:10:07.698Z,98.30
2018-08-11T04:12:37.194Z,98.10
2018-08-11T04:15:06.751Z,98.30
2018-08-11T04:17:39.008Z,97.70
2018-08-11T04:20:13.073Z,98.40
2018-08-11T04:22:43.381Z,97.60
2018-08-11T04:25:12.711Z,98.20
2018-08-11T04:27:42.197Z,98.20
2018-08-11T04:30:12.599Z,97.50
2018-08-11T04:32:42.909Z,97.00
2018-08-11T04:35:12.451Z,97.60
2018-08-11T04:37:41.862Z,96.90
2018-08-11T04:40:12.350Z,96.90
2018-08-11T04:42:41.513Z,96.80
2018-08-11T04:45:10.713Z,97.30
2018-08-11T04:47:40.185Z,97.20
2018-08-11T04:50:09.780Z,96.80
2018-08-11T04:52:39.166Z,96.70
2018-08-11T04:55:08.849Z,96.40
2018-08-11T04:57:38.471Z,96.30
2018-08-11T05:00:09.093Z,97.30
2018-08-11T05:02:38.510Z,96.80
2018-08-11T05:05:08.675Z,97.00
2018-08-11T05:07:38.780Z,96.40
2018-08-11T05:10:08.944Z,96.90
2018-08-11T05:12:38.512Z,96.90
2018-08-11T05:15:09.021Z,96.30
2018-08-11T05:17:38.351Z,96.50
2018-08-11T05:20:08.060Z,95.90
2018-08-11T05:22:37.707Z,95.90
2018-08-11T05:25:07.224Z,96.20
2018-08-11T05:27:36.762Z,95.70
2018-08-11T05:30:07.224Z,95.20
2018-08-11T05:32:37.197Z,94.70
2018-08-11T05:35:07.093Z,95.10
2018-08-11T05:37:36.634Z,95.30
2018-08-11T05:40:06.282Z,95.40
2018-08-11T05:42:35.938Z,94.60
2018-08-11T05:45:05.602Z,94.70
2018-08-11T05:47:35.118Z,95.40
2018-08-11T05:50:05.277Z,94.40
2018-08-11T05:52:34.792Z,94.50
2018-08-11T05:55:04.650Z,94.20
2018-08-11T05:57:34.000Z,94.30
2018-08-11T06:00:03.281Z,94.50
2018-08-11T06:02:32.616Z,94.20
2018-08-11T06:05:02.277Z,94.20
2018-08-11T06:07:31.639Z,93.50
2018-08-11T06:10:00.980Z,92.70
2018-08-11T06:12:30.414Z,93.50
2018-08-11T06:15:00.068Z,93.80
2018-08-11T06:17:29.541Z,94.20
2018-08-11T06:19:59.059Z,93.60
2018-08-11T06:22:28.701Z,93.10
2018-08-11T06:24:58.332Z,93.20
2018-08-11T06:27:28.864Z,93.20
2018-08-11T06:29:58.253Z,92.60
2018-08-11T06:32:27.896Z,92.60
2018-08-11T06:34:57.585Z,93.30
2018-08-11T06:37:26.756Z,92.10
2018-08-11T06:39:56.115Z,91.30
2018-08-11T06:42:25.651Z,92.20
2018-08-11T06:44:56.108Z,91.90
2018-08-11T06:47:25.965Z,90.90
2018-08-11T06:49:55.419Z,91.10
2018-08-11T06:52:24.670Z,91.90
2018-08-11T06:54:54.930Z,91.40
2018-08-11T06:57:24.432Z,91.60
2018-08-11T06:59:55.029Z,90.70
2018-08-11T07:02:24.710Z,91.00
2018-08-11T07:04:54.048Z,91.70
2018-08-11T07:07:23.817Z,92.10
2018-08-11T07:09:53.534Z,91.20
2018-08-11T07:12:23.714Z,91.10
2018-08-11T07:14:53.354Z,91.00
2018-08-11T07:17:22.689Z,90.20
2018-08-11T07:19:51.920Z,90.70
2018-08-11T07:22:21.553Z,89.90
2018-08-11T07:24:51.158Z,88.70
2018-08-11T07:27:20.921Z,89.10
2018-08-11T07:29:50.318Z,89.70
2018-08-11T07:32:19.982Z,88.10
2018-08-11T07:34:49.519Z,87.00
2018-08-11T07:37:18.898Z,86.00
2018-08-11T07:39:48.402Z,87.50
2018-08-11T07:42:18.352Z,84.10
2018-08-11T07:44:47.853Z,85.10
2018-08-11T07:47:17.230Z,85.20
2018-08-11T07:49:47.424Z,87.60
2018-08-11T07:52:16.979Z,88.60
2018-08-11T07:54:46.453Z,87.80
2018-08-11T07:57:15.772Z,87.40
2018-08-11T07:59:45.251Z,85.60
2018-08-11T08:02:14.893Z,86.30
2018-08-11T08:04:44.002Z,85.00
2018-08-11T08:07:13.552Z,83.20
2018-08-11T08:09:42.901Z,84.40
2018-08-11T08:12:12.503Z,85.00
2018-08-11T08:14:42.291Z,82.30
2018-08-11T08:17:11.859Z,84.10
2018-08-11T08:19:41.483Z,83.50
2018-08-11T08:22:11.022Z,83.50
2018-08-11T08:24:40.713Z,82.70
2018-08-11T08:27:10.326Z,82.10
2018-08-11T08:29:40.142Z,81.20
2018-08-11T08:32:09.810Z,80.00
2018-08-11T08:34:39.325Z,81.10
2018-08-11T08:37:08.720Z,81.10
2018-08-11T08:39:38.446Z,81.70
2018-08-11T08:42:08.386Z,79.70
2018-08-11T08:44:38.203Z,79.30
2018-08-11T08:47:07.652Z,78.50
2018-08-11T08:49:37.245Z,80.70
2018-08-11T08:52:06.902Z,78.90
2018-08-11T08:54:36.561Z,78.40
2018-08-11T08:57:06.076Z,79.40
2018-08-11T08:59:36.192Z,79.70
2018-08-11T09:02:05.655Z,77.90
2018-08-11T09:04:35.170Z,77.00
2018-08-11T09:07:04.598Z,76.20
2018-08-11T09:09:34.100Z,76.20
2018-08-11T09:12:03.864Z,75.10
2018-08-11T09:14:33.517Z,75.00
2018-08-11T09:17:03.156Z,73.40
2018-08-11T09:19:32.929Z,74.20
2018-08-11T09:22:02.611Z,73.50
2018-08-11T09:24:32.130Z,73.30
2018-08-11T09:27:01.654Z,72.60
2018-08-11T09:29:31.198Z,72.70
2018-08-11T09:32:00.915Z,71.80
2018-08-11T09:34:30.470Z,72.20
2018-08-11T09:36:59.942Z,71.10
2018-08-11T09:39:29.445Z,69.40
2018-08-11T09:41:58.875Z,71.10
2018-08-11T09:44:28.492Z,69.00
2018-08-11T09:46:57.929Z,70.60
2018-08-11T09:49:27.049Z,70.80
2018-08-11T09:51:56.436Z,71.80
2018-08-11T09:54:26.825Z,70.10
2018-08-11T09:56:56.031Z,70.00
2018-08-11T09:59:25.549Z,68.30
2018-08-11T10:02:00.464Z,66.80
2018-08-11T10:04:30.241Z,66.70
2018-08-11T10:06:59.756Z,69.30
2018-08-11T10:09:29.099Z,66.00
2018-08-11T10:11:58.522Z,65.90
2018-08-11T10:14:28.071Z,69.20
2018-08-11T10:16:57.228Z,64.80
2018-08-11T10:19:26.743Z,64.70
2018-08-11T10:21:56.106Z,64.50
2018-08-11T10:24:25.568Z,67.90
2018-08-11T10:26:55.011Z,63.50
2018-08-11T10:29:24.355Z,63.40
2018-08-11T10:31:54.530Z,64.00
2018-08-11T10:34:23.549Z,63.30
2018-08-11T10:36:52.890Z,65.50
2018-08-11T10:39:22.384Z,64.40
2018-08-11T10:41:51.984Z,64.00
2018-08-11T10:44:21.334Z,61.40
2018-08-11T10:46:50.903Z,64.30
2018-08-11T10:49:20.029Z,61.90
2018-08-11T10:51:49.405Z,64.10
2018-08-11T10:54:18.802Z,64.50
2018-08-11T10:56:47.999Z,63.00
2018-08-11T10:59:17.684Z,62.00
2018-08-11T11:01:46.789Z,60.20
2018-08-11T11:04:16.590Z,62.20
2018-08-11T11:06:46.193Z,59.30
2018-08-11T11:09:17.446Z,59.50
2018-08-11T11:11:47.061Z,61.50
2018-08-11T11:14:16.810Z,61.80
2018-08-11T11:16:46.165Z,61.40
2018-08-11T11:19:15.515Z,63.40
2018-08-11T11:21:46.018Z,61.90
2018-08-11T11:24:15.483Z,61.40
2018-08-11T11:26:44.953Z,63.10
2018-08-11T11:29:14.174Z,64.70
2018-08-11T11:31:43.924Z,64.00
2018-08-11T11:34:13.415Z,61.60
2018-08-11T11:36:42.901Z,61.50
2018-08-11T11:39:12.509Z,61.50
2018-08-11T11:41:42.468Z,64.20
2018-08-11T11:44:11.863Z,62.20
2018-08-11T11:46:41.663Z,60.80
2018-08-11T11:49:11.165Z,61.20
2018-08-11T11:51:40.661Z,61.70
2018-08-11T11:54:10.251Z,65.00
2018-08-11T11:56:40.065Z,62.40
2018-08-11T11:59:09.599Z,61.60
2018-08-11T12:01:39.510Z,60.70
2018-08-11T12:04:09.058Z,62.40
2018-08-11T12:06:38.848Z,63.80
2018-08-11T12:09:10.110Z,62.60
2018-08-11T12:11:40.196Z,63.20
2018-08-11T12:14:09.540Z,62.60
2018-08-11T12:16:40.100Z,61.70
2018-08-11T12:19:09.470Z,62.50
2018-08-11T12:21:39.049Z,68.50
2018-08-11T12:24:08.488Z,70.30
2018-08-11T12:26:38.307Z,72.70
2018-08-11T12:29:08.204Z,74.10
2018-08-11T12:31:37.851Z,74.20
2018-08-11T12:34:07.398Z,73.20
2018-08-11T12:36:37.140Z,74.00
2018-08-11T12:39:11.100Z,74.80
2018-08-11T12:41:41.633Z,73.10
2018-08-11T12:44:17.395Z,75.00
2018-08-11T12:46:46.874Z,74.50
2018-08-11T12:49:16.304Z,74.10
2018-08-11T12:51:45.944Z,74.30
2018-08-11T12:54:15.700Z,74.60
2018-08-11T12:56:45.090Z,74.60
2018-08-11T12:59:14.622Z,75.60
2018-08-11T13:01:44.341Z,76.90
2018-08-11T13:04:13.933Z,77.50
2018-08-11T13:06:43.711Z,76.00
2018-08-11T13:09:12.882Z,76.60
2018-08-11T13:11:42.354Z,75.60
2018-08-11T13:14:11.801Z,75.60
2018-08-11T13:16:41.240Z,74.20
2018-08-11T13:19:10.907Z,76.40
2018-08-11T13:21:40.497Z,76.70
2018-08-11T13:24:09.974Z,75.80
2018-08-11T13:26:39.804Z,75.50
2018-08-11T13:29:09.415Z,76.40
2018-08-11T13:31:38.930Z,75.80
2018-08-11T13:34:08.543Z,76.20
2018-08-11T13:36:37.941Z,75.00
2018-08-11T13:39:09.933Z,76.50
2018-08-11T13:41:50.347Z,74.70
2018-08-11T13:44:20.391Z,74.60
2018-08-11T13:46:50.064Z,74.60
2018-08-11T13:49:19.576Z,74.60
2018-08-11T13:51:49.122Z,75.10
2018-08-11T13:54:18.775Z,74.70
2018-08-11T13:56:48.253Z,75.50
2018-08-11T13:59:17.708Z,76.00
2018-08-11T14:01:47.262Z,76.60
2018-08-11T14:04:17.151Z,75.70
2018-08-11T14:06:46.734Z,75.70
2018-08-11T14:09:16.421Z,76.10
2018-08-11T14:11:46.123Z,76.60
2018-08-11T14:14:15.300Z,75.00
2018-08-11T14:16:44.863Z,74.50
2018-08-11T14:19:14.105Z,73.70
2018-08-11T14:21:43.598Z,73.40
2018-08-11T14:24:13.109Z,73.60
2018-08-11T14:26:42.740Z,74.10
2018-08-11T14:29:12.340Z,74.80
2018-08-11T14:31:42.142Z,75.30
2018-08-11T14:34:11.948Z,75.80
2018-08-11T14:36:41.328Z,77.50
2018-08-11T14:39:11.169Z,75.90
2018-08-11T14:41:40.899Z,77.30
2018-08-11T14:44:10.153Z,79.20
2018-08-11T14:46:39.631Z,80.30
2018-08-11T14:49:09.264Z,80.70
2018-08-11T14:51:38.901Z,80.70
2018-08-11T14:54:08.283Z,80.70
2018-08-11T14:56:38.158Z,80.60
2018-08-11T14:59:08.404Z,78.80
2018-08-11T15:01:37.690Z,76.80
2018-08-11T15:04:07.051Z,74.80
2018-08-11T15:06:36.512Z,75.60
2018-08-11T15:09:09.204Z,76.60
2018-08-11T15:11:39.069Z,76.10
2018-08-11T15:14:08.655Z,76.00
2018-08-11T15:16:38.036Z,77.20
2018-08-11T15:19:07.542Z,76.60
2018-08-11T15:21:37.090Z,76.80
2018-08-11T15:24:06.651Z,78.90
2018-08-11T15:26:36.151Z,77.30
2018-08-11T15:29:05.908Z,77.60
2018-08-11T15:31:35.622Z,77.10
2018-08-11T15:34:05.299Z,78.20
2018-08-11T15:36:35.971Z,77.70
2018-08-11T15:39:08.689Z,78.50
2018-08-11T15:41:38.281Z,78.30
2018-08-11T15:44:08.437Z,78.50
2018-08-11T15:46:38.424Z,78.20
2018-08-11T15:49:08.115Z,78.50
2018-08-11T15:51:37.913Z,80.00
2018-08-11T15:54:07.614Z,80.10
2018-08-11T15:56:38.020Z,81.60
2018-08-11T15:59:07.340Z,80.00
2018-08-11T16:01:37.154Z,79.60
2018-08-11T16:04:06.527Z,79.40
2018-08-11T16:06:36.155Z,78.70
2018-08-11T16:09:08.732Z,79.00
2018-08-11T16:11:39.029Z,79.70
2018-08-11T16:14:09.315Z,80.70
2018-08-11T16:16:38.740Z,81.30
2018-08-11T16:19:08.512Z,79.80
2018-08-11T16:21:37.930Z,79.00
2018-08-11T16:24:07.700Z,78.90
2018-08-11T16:26:37.143Z,79.10
2018-08-11T16:29:06.544Z,79.80
2018-08-11T16:31:36.313Z,78.60
2018-08-11T16:34:05.660Z,78.50
2018-08-11T16:36:35.274Z,77.60
2018-08-11T16:39:06.452Z,78.70
2018-08-11T16:41:36.293Z,79.70
2018-08-11T16:44:05.823Z,79.90
2018-08-11T16:46:35.593Z,81.20
2018-08-11T16:49:04.994Z,82.10
2018-08-11T16:51:34.542Z,82.40
2018-08-11T16:54:04.189Z,82.30
2018-08-11T16:56:33.662Z,82.70
2018-08-11T16:59:03.220Z,83.70
2018-08-11T17:01:32.843Z,83.10
2018-08-11T17:04:02.293Z,83.60
2018-08-11T17:06:31.843Z,84.10
2018-08-11T17:09:01.170Z,86.20
2018-08-11T17:11:30.426Z,87.20
2018-08-11T17:14:00.064Z,87.40
2018-08-11T17:16:29.502Z,87.10
2018-08-11T17:18:59.101Z,88.40
2018-08-11T17:21:28.223Z,88.20
2018-08-11T17:23:57.956Z,87.90
2018-08-11T17:26:27.791Z,89.40
2018-08-11T17:28:57.386Z,88.00
2018-08-11T17:31:27.308Z,87.70
2018-08-11T17:33:56.845Z,87.90
2018-08-11T17:36:26.153Z,87.70
2018-08-11T17:38:55.716Z,86.20
2018-08-11T17:41:25.252Z,86.00
2018-08-11T17:43:54.386Z,87.70
2018-08-11T17:46:24.052Z,87.80
2018-08-11T17:48:53.771Z,88.00
2018-08-11T17:51:23.804Z,88.60
2018-08-11T17:53:53.378Z,88.90
2018-08-11T17:56:22.900Z,89.50
2018-08-11T17:58:53.333Z,89.50
2018-08-11T18:01:23.032Z,90.10
2018-08-11T18:03:52.549Z,90.10
2018-08-11T18:06:22.130Z,90.10
2018-08-11T18:08:51.351Z,90.50
2018-08-11T18:11:20.715Z,90.70
2018-08-11T18:13:50.225Z,90.80
2018-08-11T18:16:19.951Z,90.80
2018-08-11T18:18:49.468Z,90.80
2018-08-11T18:21:19.097Z,90.50
2018-08-11T18:23:48.595Z,90.90
2018-08-11T18:26:18.191Z,91.20
2018-08-11T18:28:47.793Z,91.10
2018-08-11T18:31:17.428Z,92.30
2018-08-11T18:33:46.828Z,92.60
2018-08-11T18:36:16.432Z,91.90
2018-08-11T18:38:45.907Z,91.90
2018-08-11T18:41:15.061Z,92.10
2018-08-11T18:43:44.729Z,92.30
2018-08-11T18:46:14.324Z,92.50
2018-08-11T18:48:43.670Z,92.60
2018-08-11T18:51:13.443Z,92.20
2018-08-11T18:53:42.947Z,92.80
2018-08-11T18:56:12.311Z,93.40
2018-08-11T18:58:42.070Z,93.70
2018-08-11T19:01:11.680Z,93.90
2018-08-11T19:03:41.315Z,93.00
2018-08-11T19:06:11.232Z,92.80
2018-08-11T19:08:40.882Z,92.90
2018-08-11T19:11:10.540Z,92.60
2018-08-11T19:13:39.879Z,92.10
2018-08-11T19:16:09.489Z,92.70
2018-08-11T19:18:39.179Z,92.90
2018-08-11T19:21:09.293Z,93.10
2018-08-11T19:23:38.688Z,92.50
2018-08-11T19:26:08.532Z,93.00
2018-08-11T19:28:37.913Z,93.20
2018-08-11T19:31:07.462Z,93.20
2018-08-11T19:33:36.615Z,93.40
2018-08-11T19:36:05.866Z,93.60
2018-08-11T19:38:35.541Z,93.90
2018-08-11T19:41:04.965Z,93.80
2018-08-11T19:43:34.762Z,93.90
2018-08-11T19:46:04.166Z,94.10
2018-08-11T19:48:33.644Z,94.30
2018-08-11T19:51:03.124Z,94.50
2018-08-11T19:53:32.780Z,94.50
2018-08-11T19:56:02.435Z,94.80
2018-08-11T19:58:32.271Z,94.60
2018-08-11T20:01:01.753Z,95.10
2018-08-11T20:03:31.593Z,95.40
2018-08-11T20:06:01.259Z,96.00
2018-08-11T20:08:30.780Z,96.40
2018-08-11T20:11:00.036Z,96.10
2018-08-11T20:13:29.693Z,96.80
2018-08-11T20:15:59.259Z,96.50
2018-08-11T20:18:28.631Z,96.50
2018-08-11T20:20:58.090Z,96.10
2018-08-11T20:23:27.548Z,94.90
2018-08-11T20:25:57.313Z,94.20
2018-08-11T20:28:26.910Z,95.40
2018-08-11T20:30:56.930Z,93.80
2018-08-11T20:33:26.552Z,95.00
2018-08-11T20:35:56.310Z,96.20
2018-08-11T20:38:25.721Z,98.00
2018-08-11T20:40:55.292Z,97.20
2018-08-11T20:43:24.974Z,98.40
2018-08-11T20:45:54.360Z,99.10
2018-08-11T20:48:24.002Z,99.60
2018-08-11T20:50:53.408Z,99.80
2018-08-11T20:53:23.130Z,98.90
2018-08-11T20:55:52.729Z,99.90
2018-08-11T20:58:22.123Z,98.70
2018-08-11T21:00:51.962Z,98.70
2018-08-11T21:03:21.614Z,99.30
2018-08-11T21:05:51.032Z,98.90
2018-08-11T21:08:20.554Z,99.40
2018-08-11T21:10:50.150Z,99.30
2018-08-11T21:13:19.772Z,99.20
2018-08-11T21:15:49.351Z,99.90
2018-08-11T21:18:18.772Z,99.90
2018-08-11T21:20:48.728Z,99.90
2018-08-11T21:23:18.333Z,99.90
2018-08-11T21:25:48.045Z,99.90
2018-08-11T21:28:17.622Z,99.90
2018-08-11T21:30:47.080Z,99.90
2018-08-11T21:33:16.530Z,99.90
2018-08-11T21:35:46.173Z,99.90
2018-08-11T21:38:15.944Z,99.90
2018-08-11T21:40:45.660Z,99.90
2018-08-11T21:43:15.272Z,99.90
2018-08-11T21:45:44.511Z,99.90
2018-08-11T21:48:14.112Z,99.90
2018-08-11T21:50:43.930Z,99.90
2018-08-11T21:53:13.738Z,99.90
2018-08-11T21:55:43.970Z,99.90
2018-08-11T21:58:13.520Z,99.90
2018-08-11T22:00:47.220Z,99.90
2018-08-11T22:03:16.693Z,99.90
2018-08-11T22:05:46.280Z,99.90
2018-08-11T22:08:15.835Z,99.90
2018-08-11T22:10:45.203Z,99.90
2018-08-11T22:13:14.713Z,99.90
2018-08-11T22:15:44.175Z,99.90
2018-08-11T22:18:13.489Z,99.90
2018-08-11T22:20:43.031Z,99.90
2018-08-11T22:23:12.362Z,99.90
2018-08-11T22:25:41.801Z,98.80
2018-08-11T22:28:11.467Z,98.20
2018-08-11T22:30:40.992Z,98.00
2018-08-11T22:33:10.273Z,97.30
2018-08-11T22:35:39.930Z,98.00
2018-08-11T22:38:09.481Z,97.30
2018-08-11T22:40:38.879Z,97.60
2018-08-11T22:43:08.382Z,96.60
2018-08-11T22:45:37.890Z,97.10
2018-08-11T22:48:07.903Z,97.20
2018-08-11T22:50:37.422Z,96.60
2018-08-11T22:53:06.645Z,96.30
2018-08-11T22:55:36.451Z,96.60
2018-08-11T22:58:06.107Z,96.10
2018-08-11T23:00:35.532Z,95.90
2018-08-11T23:03:05.143Z,96.10
2018-08-11T23:05:34.398Z,96.80
2018-08-11T23:08:04.085Z,97.60
2018-08-11T23:10:33.672Z,98.50
2018-08-11T23:13:03.221Z,99.20
2018-08-11T23:15:32.692Z,99.90
2018-08-11T23:18:02.303Z,99.80
2018-08-11T23:20:31.721Z,99.40
2018-08-11T23:23:01.353Z,99.90
2018-08-11T23:25:31.143Z,99.90
2018-08-11T23:28:00.590Z,99.90
2018-08-11T23:30:30.194Z,99.60
2018-08-11T23:32:59.550Z,99.90
2018-08-11T23:35:29.211Z,99.90
2018-08-11T23:37:59.035Z,99.90
2018-08-11T23:40:28.380Z,99.90
2018-08-11T23:42:57.923Z,99.90
2018-08-11T23:45:27.433Z,99.90
2018-08-11T23:47:56.905Z,99.90
2018-08-11T23:50:27.530Z,99.90
2018-08-11T23:52:57.015Z,99.90
2018-08-11T23:55:26.595Z,99.90
2018-08-11T23:57:56.218Z,99.90
